sensor_id;sensor_type;location;lat;lon;timestamp;pressure;altitude;pressure_sealevel;temperature;humidity
68399;BME280;56258;52.196;13.868;2022-09-13T00:01:02;100909.66;;;21.50;54.61
68399;BME280;56258;52.196;13.868;2022-09-13T00:03:29;100906.75;;;21.52;54.58
68399;BME280;56258;52.196;13.868;2022-09-13T00:05:56;100909.03;;;21.48;54.61
68399;BME280;56258;52.196;13.868;2022-09-13T00:08:23;100914.81;;;21.45;54.52
68399;BME280;56258;52.196;13.868;2022-09-13T00:10:50;100906.91;;;21.44;54.55
68399;BME280;56258;52.196;13.868;2022-09-13T00:13:16;100903.34;;;21.43;54.86
68399;BME280;56258;52.196;13.868;2022-09-13T00:15:47;100896.63;;;21.39;54.67
68399;BME280;56258;52.196;13.868;2022-09-13T00:18:15;100890.03;;;21.42;55.13
68399;BME280;56258;52.196;13.868;2022-09-13T00:20:42;100890.38;;;21.39;54.94
68399;BME280;56258;52.196;13.868;2022-09-13T00:23:09;100876.66;;;21.40;54.58
68399;BME280;56258;52.196;13.868;2022-09-13T00:25:37;100879.75;;;21.37;55.18
68399;BME280;56258;52.196;13.868;2022-09-13T00:28:04;100882.19;;;21.32;55.26
68399;BME280;56258;52.196;13.868;2022-09-13T00:30:31;100879.69;;;21.31;55.52
68399;BME280;56258;52.196;13.868;2022-09-13T00:32:58;100874.94;;;21.33;55.26
68399;BME280;56258;52.196;13.868;2022-09-13T00:35:24;100858.50;;;21.34;55.52
68399;BME280;56258;52.196;13.868;2022-09-13T00:37:51;100872.47;;;21.38;55.70
68399;BME280;56258;52.196;13.868;2022-09-13T00:40:20;100860.28;;;21.42;55.66
68399;BME280;56258;52.196;13.868;2022-09-13T00:42:47;100861.94;;;21.43;55.14
68399;BME280;56258;52.196;13.868;2022-09-13T00:45:16;100857.91;;;21.39;55.42
68399;BME280;56258;52.196;13.868;2022-09-13T00:48:03;100852.31;;;21.40;54.99
68399;BME280;56258;52.196;13.868;2022-09-13T00:50:37;100851.97;;;21.43;55.24
68399;BME280;56258;52.196;13.868;2022-09-13T00:53:11;100850.09;;;21.44;55.66
68399;BME280;56258;52.196;13.868;2022-09-13T00:58:12;100846.75;;;21.42;55.34
68399;BME280;56258;52.196;13.868;2022-09-13T01:00:41;100839.28;;;21.44;55.52
68399;BME280;56258;52.196;13.868;2022-09-13T01:03:11;100840.94;;;21.45;55.23
68399;BME280;56258;52.196;13.868;2022-09-13T01:05:46;100829.28;;;21.44;55.36
68399;BME280;56258;52.196;13.868;2022-09-13T01:08:15;100824.25;;;21.41;55.67
68399;BME280;56258;52.196;13.868;2022-09-13T01:10:52;100813.06;;;21.44;55.09
68399;BME280;56258;52.196;13.868;2022-09-13T01:13:27;100803.09;;;21.45;55.55
68399;BME280;56258;52.196;13.868;2022-09-13T01:15:58;100795.16;;;21.43;55.00
68399;BME280;56258;52.196;13.868;2022-09-13T01:18:25;100793.94;;;21.46;55.46
68399;BME280;56258;52.196;13.868;2022-09-13T01:31:53;100795.38;;;21.42;55.24
68399;BME280;56258;52.196;13.868;2022-09-13T01:37:32;100780.81;;;21.43;55.48
68399;BME280;56258;52.196;13.868;2022-09-13T01:43:18;100783.03;;;21.39;55.71
68399;BME280;56258;52.196;13.868;2022-09-13T01:49:41;100775.94;;;21.38;55.83
68399;BME280;56258;52.196;13.868;2022-09-13T01:51:36;100775.13;;;21.38;55.25
68399;BME280;56258;52.196;13.868;2022-09-13T01:57:02;100781.94;;;21.34;55.39
68399;BME280;56258;52.196;13.868;2022-09-13T02:04:41;100770.94;;;21.35;56.03
68399;BME280;56258;52.196;13.868;2022-09-13T02:07:14;100775.31;;;21.36;55.13
68399;BME280;56258;52.196;13.868;2022-09-13T02:09:47;100764.88;;;21.33;55.56
68399;BME280;56258;52.196;13.868;2022-09-13T02:12:20;100762.63;;;21.37;55.89
68399;BME280;56258;52.196;13.868;2022-09-13T02:15:14;100750.97;;;21.36;54.99
68399;BME280;56258;52.196;13.868;2022-09-13T02:17:46;100747.25;;;21.37;55.77
68399;BME280;56258;52.196;13.868;2022-09-13T02:20:23;100741.81;;;21.37;54.71
68399;BME280;56258;52.196;13.868;2022-09-13T02:22:56;100738.47;;;21.35;54.97
68399;BME280;56258;52.196;13.868;2022-09-13T02:25:25;100737.84;;;21.33;55.28
68399;BME280;56258;52.196;13.868;2022-09-13T02:27:55;100729.09;;;21.31;55.50
68399;BME280;56258;52.196;13.868;2022-09-13T02:30:26;100738.22;;;21.30;55.17
68399;BME280;56258;52.196;13.868;2022-09-13T02:33:03;100739.25;;;21.29;55.13
68399;BME280;56258;52.196;13.868;2022-09-13T02:35:37;100738.78;;;21.25;55.59
68399;BME280;56258;52.196;13.868;2022-09-13T02:38:21;100730.59;;;21.19;55.94
68399;BME280;56258;52.196;13.868;2022-09-13T02:40:56;100720.63;;;21.19;55.99
68399;BME280;56258;52.196;13.868;2022-09-13T02:43:51;100719.88;;;21.25;55.39
68399;BME280;56258;52.196;13.868;2022-09-13T02:49:29;100715.28;;;21.26;55.09
68399;BME280;56258;52.196;13.868;2022-09-13T02:57:58;100715.00;;;21.21;55.20
68399;BME280;56258;52.196;13.868;2022-09-13T03:00:26;100714.38;;;21.19;55.63
68399;BME280;56258;52.196;13.868;2022-09-13T03:02:55;100707.03;;;21.13;55.41
68399;BME280;56258;52.196;13.868;2022-09-13T03:05:25;100706.63;;;21.16;55.60
68399;BME280;56258;52.196;13.868;2022-09-13T03:07:52;100707.47;;;21.16;55.60
68399;BME280;56258;52.196;13.868;2022-09-13T03:10:19;100712.22;;;21.14;55.18
68399;BME280;56258;52.196;13.868;2022-09-13T03:31:07;100673.31;;;21.09;54.92
68399;BME280;56258;52.196;13.868;2022-09-13T03:34:00;100658.13;;;21.08;55.35
68399;BME280;56258;52.196;13.868;2022-09-13T03:39:12;100657.84;;;21.03;55.44
68399;BME280;56258;52.196;13.868;2022-09-13T03:41:48;100664.53;;;21.07;55.18
68399;BME280;56258;52.196;13.868;2022-09-13T03:44:20;100647.41;;;21.00;55.25
68399;BME280;56258;52.196;13.868;2022-09-13T03:46:51;100648.91;;;21.02;55.68
68399;BME280;56258;52.196;13.868;2022-09-13T03:49:20;100642.91;;;21.07;55.40
68399;BME280;56258;52.196;13.868;2022-09-13T03:51:49;100646.78;;;20.97;55.58
68399;BME280;56258;52.196;13.868;2022-09-13T03:54:29;100643.25;;;20.97;55.52
68399;BME280;56258;52.196;13.868;2022-09-13T03:57:09;100646.78;;;20.97;55.13
68399;BME280;56258;52.196;13.868;2022-09-13T03:59:38;100640.53;;;20.97;55.76
68399;BME280;56258;52.196;13.868;2022-09-13T04:02:06;100638.41;;;20.92;55.81
68399;BME280;56258;52.196;13.868;2022-09-13T04:04:42;100642.53;;;20.88;55.89
68399;BME280;56258;52.196;13.868;2022-09-13T04:07:11;100645.03;;;20.90;55.85
68399;BME280;56258;52.196;13.868;2022-09-13T04:09:37;100649.59;;;20.89;55.19
68399;BME280;56258;52.196;13.868;2022-09-13T04:12:05;100648.56;;;20.90;55.53
68399;BME280;56258;52.196;13.868;2022-09-13T04:14:31;100643.94;;;20.84;55.74
68399;BME280;56258;52.196;13.868;2022-09-13T04:16:58;100644.38;;;20.88;55.71
68399;BME280;56258;52.196;13.868;2022-09-13T04:19:25;100646.91;;;20.89;55.21
68399;BME280;56258;52.196;13.868;2022-09-13T04:21:53;100640.00;;;20.87;55.55
68399;BME280;56258;52.196;13.868;2022-09-13T04:24:24;100644.38;;;20.88;55.67
68399;BME280;56258;52.196;13.868;2022-09-13T04:26:51;100632.94;;;20.86;55.71
68399;BME280;56258;52.196;13.868;2022-09-13T04:29:20;100629.84;;;20.89;55.58
68399;BME280;56258;52.196;13.868;2022-09-13T04:31:49;100620.25;;;20.86;55.85
68399;BME280;56258;52.196;13.868;2022-09-13T04:34:16;100616.53;;;20.87;55.60
68399;BME280;56258;52.196;13.868;2022-09-13T04:36:48;100621.94;;;20.87;55.65
68399;BME280;56258;52.196;13.868;2022-09-13T04:39:15;100608.63;;;20.86;55.68
68399;BME280;56258;52.196;13.868;2022-09-13T04:41:43;100607.59;;;20.87;55.49
68399;BME280;56258;52.196;13.868;2022-09-13T04:44:14;100603.22;;;20.86;55.49
68399;BME280;56258;52.196;13.868;2022-09-13T04:46:41;100610.84;;;20.82;55.58
68399;BME280;56258;52.196;13.868;2022-09-13T04:49:10;100608.16;;;20.82;55.88
68399;BME280;56258;52.196;13.868;2022-09-13T04:51:37;100602.75;;;20.82;55.51
68399;BME280;56258;52.196;13.868;2022-09-13T04:54:04;100606.13;;;20.84;55.67
68399;BME280;56258;52.196;13.868;2022-09-13T04:56:31;100605.44;;;20.82;55.83
68399;BME280;56258;52.196;13.868;2022-09-13T04:58:57;100610.84;;;20.82;55.96
68399;BME280;56258;52.196;13.868;2022-09-13T05:01:24;100593.59;;;20.83;55.74
68399;BME280;56258;52.196;13.868;2022-09-13T05:03:53;100607.59;;;20.87;55.65
68399;BME280;56258;52.196;13.868;2022-09-13T05:06:21;100611.53;;;20.84;55.50
68399;BME280;56258;52.196;13.868;2022-09-13T05:08:52;100591.56;;;20.85;55.31
68399;BME280;56258;52.196;13.868;2022-09-13T05:11:25;100594.84;;;20.81;55.94
68399;BME280;56258;52.196;13.868;2022-09-13T05:13:54;100590.06;;;20.83;55.71
68399;BME280;56258;52.196;13.868;2022-09-13T05:16:26;100587.19;;;20.84;55.78
68399;BME280;56258;52.196;13.868;2022-09-13T05:18:54;100589.06;;;20.84;55.81
68399;BME280;56258;52.196;13.868;2022-09-13T05:21:21;100585.13;;;20.86;55.16
68399;BME280;56258;52.196;13.868;2022-09-13T05:23:48;100585.34;;;20.85;55.35
68399;BME280;56258;52.196;13.868;2022-09-13T05:26:16;100584.31;;;20.86;55.21
68399;BME280;56258;52.196;13.868;2022-09-13T05:28:43;100588.88;;;20.85;55.43
68399;BME280;56258;52.196;13.868;2022-09-13T05:31:16;100581.84;;;20.91;55.48
68399;BME280;56258;52.196;13.868;2022-09-13T05:33:45;100582.69;;;20.91;55.44
68399;BME280;56258;52.196;13.868;2022-09-13T05:36:12;100566.66;;;20.90;55.25
68399;BME280;56258;52.196;13.868;2022-09-13T05:38:39;100568.28;;;20.84;54.96
68399;BME280;56258;52.196;13.868;2022-09-13T05:41:05;100566.25;;;20.93;55.30
68399;BME280;56258;52.196;13.868;2022-09-13T05:43:34;100554.19;;;20.89;55.20
68399;BME280;56258;52.196;13.868;2022-09-13T05:46:03;100558.75;;;20.88;54.80
68399;BME280;56258;52.196;13.868;2022-09-13T05:48:31;100562.72;;;20.92;55.27
68399;BME280;56258;52.196;13.868;2022-09-13T05:51:11;100567.78;;;20.95;54.97
68399;BME280;56258;52.196;13.868;2022-09-13T05:53:40;100569.44;;;20.96;54.75
68399;BME280;56258;52.196;13.868;2022-09-13T05:56:09;100569.03;;;21.00;55.52
68399;BME280;56258;52.196;13.868;2022-09-13T05:58:44;100562.38;;;20.95;54.95
68399;BME280;56258;52.196;13.868;2022-09-13T06:01:11;100562.72;;;20.92;55.07
68399;BME280;56258;52.196;13.868;2022-09-13T06:03:38;100557.13;;;20.94;55.64
68399;BME280;56258;52.196;13.868;2022-09-13T06:06:05;100551.91;;;20.92;55.71
68399;BME280;56258;52.196;13.868;2022-09-13T06:08:33;100549.69;;;20.96;54.97
68399;BME280;56258;52.196;13.868;2022-09-13T06:11:05;100547.75;;;20.90;55.85
68399;BME280;56258;52.196;13.868;2022-09-13T06:13:33;100540.47;;;20.90;56.04
68399;BME280;56258;52.196;13.868;2022-09-13T06:16:02;100532.56;;;21.17;55.91
68399;BME280;56258;52.196;13.868;2022-09-13T06:18:29;100539.41;;;21.34;55.56
68399;BME280;56258;52.196;13.868;2022-09-13T06:21:00;100537.81;;;21.46;55.91
68399;BME280;56258;52.196;13.868;2022-09-13T06:23:28;100536.09;;;21.67;55.97
68399;BME280;56258;52.196;13.868;2022-09-13T06:26:22;100531.25;;;22.03;54.00
68399;BME280;56258;52.196;13.868;2022-09-13T06:28:54;100536.31;;;22.06;53.63
68399;BME280;56258;52.196;13.868;2022-09-13T06:31:23;100530.63;;;22.01;54.10
68399;BME280;56258;52.196;13.868;2022-09-13T06:33:56;100533.56;;;22.00;53.92
68399;BME280;56258;52.196;13.868;2022-09-13T06:36:23;100539.59;;;22.02;53.97
68399;BME280;56258;52.196;13.868;2022-09-13T06:38:50;100540.63;;;22.01;53.80
68399;BME280;56258;52.196;13.868;2022-09-13T06:41:18;100549.38;;;22.03;53.33
68399;BME280;56258;52.196;13.868;2022-09-13T06:43:46;100552.66;;;21.98;53.61
68399;BME280;56258;52.196;13.868;2022-09-13T06:46:16;100547.81;;;21.87;53.82
68399;BME280;56258;52.196;13.868;2022-09-13T06:48:50;100557.81;;;21.80;53.32
68399;BME280;56258;52.196;13.868;2022-09-13T06:51:20;100557.81;;;21.80;53.75
68399;BME280;56258;52.196;13.868;2022-09-13T06:53:48;100545.13;;;21.87;53.81
68399;BME280;56258;52.196;13.868;2022-09-13T06:58:44;100559.09;;;21.91;52.91
68399;BME280;56258;52.196;13.868;2022-09-13T07:01:25;100561.75;;;21.84;52.84
68399;BME280;56258;52.196;13.868;2022-09-13T07:04:07;100554.63;;;21.70;53.43
68399;BME280;56258;52.196;13.868;2022-09-13T07:06:37;100559.81;;;21.71;53.78
68399;BME280;56258;52.196;13.868;2022-09-13T07:09:05;100563.50;;;21.64;53.65
68399;BME280;56258;52.196;13.868;2022-09-13T07:11:35;100560.16;;;21.55;53.08
68399;BME280;56258;52.196;13.868;2022-09-13T07:14:02;100567.16;;;21.49;53.47
68399;BME280;56258;52.196;13.868;2022-09-13T07:16:31;100569.13;;;21.62;53.15
68399;BME280;56258;52.196;13.868;2022-09-13T07:19:04;100580.59;;;21.64;53.32
68399;BME280;56258;52.196;13.868;2022-09-13T07:21:32;100577.72;;;21.66;53.69
68399;BME280;56258;52.196;13.868;2022-09-13T07:23:59;100564.25;;;21.44;53.59
68399;BME280;56258;52.196;13.868;2022-09-13T07:26:27;100549.53;;;21.25;54.63
68399;BME280;56258;52.196;13.868;2022-09-13T07:28:59;100558.78;;;21.16;54.58
68399;BME280;56258;52.196;13.868;2022-09-13T07:31:28;100544.00;;;21.12;54.85
68399;BME280;56258;52.196;13.868;2022-09-13T07:33:57;100539.81;;;21.10;54.83
68399;BME280;56258;52.196;13.868;2022-09-13T07:36:25;100534.78;;;21.07;55.35
68399;BME280;56258;52.196;13.868;2022-09-13T07:38:53;100543.91;;;21.06;54.94
68399;BME280;56258;52.196;13.868;2022-09-13T07:41:21;100537.31;;;21.08;54.96
68399;BME280;56258;52.196;13.868;2022-09-13T07:43:49;100542.97;;;21.13;54.62
68399;BME280;56258;52.196;13.868;2022-09-13T07:46:22;100534.84;;;21.13;54.56
68399;BME280;56258;52.196;13.868;2022-09-13T07:48:52;100537.69;;;21.05;54.46
68399;BME280;56258;52.196;13.868;2022-09-13T07:51:21;100536.09;;;21.11;54.59
68399;BME280;56258;52.196;13.868;2022-09-13T07:53:49;100534.63;;;21.08;54.59
68399;BME280;56258;52.196;13.868;2022-09-13T07:56:27;100545.59;;;21.07;54.70
68399;BME280;56258;52.196;13.868;2022-09-13T07:58:54;100542.25;;;21.05;54.68
68399;BME280;56258;52.196;13.868;2022-09-13T08:01:23;100533.81;;;21.14;54.58
68399;BME280;56258;52.196;13.868;2022-09-13T08:03:52;100532.16;;;21.13;54.15
68399;BME280;56258;52.196;13.868;2022-09-13T08:06:20;100540.19;;;21.07;55.05
68399;BME280;56258;52.196;13.868;2022-09-13T08:08:47;100542.22;;;20.98;55.01
68399;BME280;56258;52.196;13.868;2022-09-13T08:11:17;100543.88;;;20.99;55.08
68399;BME280;56258;52.196;13.868;2022-09-13T08:13:48;100541.81;;;21.01;55.39
68399;BME280;56258;52.196;13.868;2022-09-13T08:16:17;100534.63;;;21.08;54.96
68399;BME280;56258;52.196;13.868;2022-09-13T08:18:47;100525.00;;;21.06;54.86
68399;BME280;56258;52.196;13.868;2022-09-13T08:21:14;100539.75;;;21.03;55.24
68399;BME280;56258;52.196;13.868;2022-09-13T08:23:41;100545.59;;;21.07;55.08
68399;BME280;56258;52.196;13.868;2022-09-13T08:26:08;100542.06;;;21.06;54.90
68399;BME280;56258;52.196;13.868;2022-09-13T08:28:37;100539.81;;;21.10;54.54
68399;BME280;56258;52.196;13.868;2022-09-13T08:31:15;100532.06;;;21.07;55.09
68399;BME280;56258;52.196;13.868;2022-09-13T08:33:44;100543.09;;;21.05;54.67
68399;BME280;56258;52.196;13.868;2022-09-13T08:36:12;100536.47;;;21.08;55.17
68399;BME280;56258;52.196;13.868;2022-09-13T08:38:47;100518.56;;;21.07;54.85
68399;BME280;56258;52.196;13.868;2022-09-13T08:46:48;100502.22;;;21.15;54.86
68399;BME280;56258;52.196;13.868;2022-09-13T08:49:29;100498.28;;;21.17;54.44
68399;BME280;56258;52.196;13.868;2022-09-13T08:53:04;100497.06;;;21.20;54.17
68399;BME280;56258;52.196;13.868;2022-09-13T08:55:21;100500.00;;;21.25;54.39
68399;BME280;56258;52.196;13.868;2022-09-13T08:58:05;100501.50;;;21.27;53.81
68399;BME280;56258;52.196;13.868;2022-09-13T09:00:38;100500.91;;;21.32;54.85
68399;BME280;56258;52.196;13.868;2022-09-13T09:03:12;100498.44;;;21.37;54.33
68399;BME280;56258;52.196;13.868;2022-09-13T09:05:49;100510.53;;;21.41;53.96
68399;BME280;56258;52.196;13.868;2022-09-13T09:08:26;100505.38;;;21.46;53.69
68399;BME280;56258;52.196;13.868;2022-09-13T09:10:58;100508.31;;;21.51;53.75
68399;BME280;56258;52.196;13.868;2022-09-13T09:13:49;100509.88;;;21.74;52.79
68399;BME280;56258;52.196;13.868;2022-09-13T09:16:44;100508.09;;;22.35;51.04
68399;BME280;56258;52.196;13.868;2022-09-13T09:19:25;100510.06;;;22.94;49.76
68399;BME280;56258;52.196;13.868;2022-09-13T09:21:55;100515.63;;;23.52;48.27
68399;BME280;56258;52.196;13.868;2022-09-13T09:24:24;100506.81;;;23.70;47.42
68399;BME280;56258;52.196;13.868;2022-09-13T09:26:52;100508.09;;;23.48;48.09
68399;BME280;56258;52.196;13.868;2022-09-13T09:29:29;100503.44;;;24.33;46.04
68399;BME280;56258;52.196;13.868;2022-09-13T09:37:36;100503.50;;;25.14;43.58
68399;BME280;56258;52.196;13.868;2022-09-13T09:40:05;100511.78;;;24.69;44.66
68399;BME280;56258;52.196;13.868;2022-09-13T09:42:46;100506.00;;;24.59;45.24
68399;BME280;56258;52.196;13.868;2022-09-13T09:45:26;100507.13;;;25.70;42.85
68399;BME280;56258;52.196;13.868;2022-09-13T09:47:55;100508.53;;;25.36;42.98
68399;BME280;56258;52.196;13.868;2022-09-13T09:50:27;100502.44;;;25.34;43.48
68399;BME280;56258;52.196;13.868;2022-09-13T09:53:13;100504.06;;;26.14;41.64
68399;BME280;56258;52.196;13.868;2022-09-13T09:55:58;100505.00;;;25.90;41.82
68399;BME280;56258;52.196;13.868;2022-09-13T09:58:43;100506.47;;;25.31;43.25
68399;BME280;56258;52.196;13.868;2022-09-13T10:01:30;100498.03;;;24.89;44.00
68399;BME280;56258;52.196;13.868;2022-09-13T10:06:38;100492.13;;;24.29;45.62
68399;BME280;56258;52.196;13.868;2022-09-13T10:11:56;100476.19;;;24.78;44.65
68399;BME280;56258;52.196;13.868;2022-09-13T10:14:38;100484.91;;;25.73;42.79
68399;BME280;56258;52.196;13.868;2022-09-13T10:17:26;100487.94;;;26.13;41.79
68399;BME280;56258;52.196;13.868;2022-09-13T10:19:58;100492.91;;;26.16;41.13
68399;BME280;56258;52.196;13.868;2022-09-13T10:22:31;100483.81;;;25.55;42.83
68399;BME280;56258;52.196;13.868;2022-09-13T10:25:24;100483.38;;;25.58;42.28
68399;BME280;56258;52.196;13.868;2022-09-13T10:27:57;100480.84;;;25.39;43.11
68399;BME280;56258;52.196;13.868;2022-09-13T10:32:57;100470.88;;;27.01;39.67
68399;BME280;56258;52.196;13.868;2022-09-13T10:35:24;100470.88;;;27.48;38.44
68399;BME280;56258;52.196;13.868;2022-09-13T10:37:51;100463.22;;;26.56;40.44
68399;BME280;56258;52.196;13.868;2022-09-13T10:40:24;100457.53;;;26.58;40.40
68399;BME280;56258;52.196;13.868;2022-09-13T10:42:54;100460.88;;;27.53;38.79
68399;BME280;56258;52.196;13.868;2022-09-13T10:45:23;100465.41;;;26.36;40.93
68399;BME280;56258;52.196;13.868;2022-09-13T10:47:54;100459.59;;;25.29;43.34
68399;BME280;56258;52.196;13.868;2022-09-13T10:50:28;100463.31;;;24.66;44.43
68399;BME280;56258;52.196;13.868;2022-09-13T10:52:58;100461.66;;;24.34;45.52
68399;BME280;56258;52.196;13.868;2022-09-13T10:55:33;100469.06;;;24.07;46.29
68399;BME280;56258;52.196;13.868;2022-09-13T11:17:18;100443.94;;;23.80;47.19
68399;BME280;56258;52.196;13.868;2022-09-13T11:20:17;100448.31;;;23.81;47.25
68399;BME280;56258;52.196;13.868;2022-09-13T11:22:57;100438.72;;;23.78;46.93
68399;BME280;56258;52.196;13.868;2022-09-13T11:31:07;100432.94;;;23.62;47.50
68399;BME280;56258;52.196;13.868;2022-09-13T11:33:49;100439.81;;;23.57;47.83
68399;BME280;56258;52.196;13.868;2022-09-13T11:39:00;100433.84;;;23.36;48.25
68399;BME280;56258;52.196;13.868;2022-09-13T11:55:47;100435.31;;;23.32;47.97
68399;BME280;56258;52.196;13.868;2022-09-13T11:58:27;100427.41;;;23.23;48.18
68399;BME280;56258;52.196;13.868;2022-09-13T12:00:58;100437.63;;;23.28;48.42
68399;BME280;56258;52.196;13.868;2022-09-13T12:06:07;100426.19;;;23.13;48.68
68399;BME280;56258;52.196;13.868;2022-09-13T12:08:49;100434.31;;;23.19;48.25
68399;BME280;56258;52.196;13.868;2022-09-13T12:11:20;100435.97;;;23.20;48.28
68399;BME280;56258;52.196;13.868;2022-09-13T12:13:56;100431.00;;;23.17;48.72
68399;BME280;56258;52.196;13.868;2022-09-13T12:16:31;100433.06;;;23.15;48.47
68399;BME280;56258;52.196;13.868;2022-09-13T12:19:13;100427.22;;;23.12;48.79
68399;BME280;56258;52.196;13.868;2022-09-13T12:21:42;100428.50;;;23.16;48.53
68399;BME280;56258;52.196;13.868;2022-09-13T12:27:35;100422.63;;;23.19;48.14
68399;BME280;56258;52.196;13.868;2022-09-13T12:29:56;100421.59;;;23.20;48.39
68399;BME280;56258;52.196;13.868;2022-09-13T12:32:26;100412.22;;;23.16;48.70
68399;BME280;56258;52.196;13.868;2022-09-13T12:43:36;100414.28;;;23.14;48.81
68399;BME280;56258;52.196;13.868;2022-09-13T12:52:11;100396.34;;;23.13;49.03
68399;BME280;56258;52.196;13.868;2022-09-13T12:58:11;100404.91;;;23.03;49.44
68399;BME280;56258;52.196;13.868;2022-09-13T13:03:28;100405.78;;;22.97;49.00
68399;BME280;56258;52.196;13.868;2022-09-13T13:06:27;100410.97;;;22.92;49.61
68399;BME280;56258;52.196;13.868;2022-09-13T13:08:57;100398.06;;;22.87;49.98
68399;BME280;56258;52.196;13.868;2022-09-13T13:11:27;100387.63;;;22.91;49.48
68399;BME280;56258;52.196;13.868;2022-09-13T13:14:01;100388.69;;;22.77;49.91
68399;BME280;56258;52.196;13.868;2022-09-13T13:16:37;100389.69;;;23.02;49.14
68399;BME280;56258;52.196;13.868;2022-09-13T13:19:29;100374.06;;;23.04;49.46
68399;BME280;56258;52.196;13.868;2022-09-13T13:25:36;100377.16;;;23.14;49.05
68399;BME280;56258;52.196;13.868;2022-09-13T13:33:54;100368.06;;;23.47;48.37
68399;BME280;56258;52.196;13.868;2022-09-13T13:36:28;100359.25;;;23.65;47.55
68399;BME280;56258;52.196;13.868;2022-09-13T13:38:58;100370.72;;;23.67;47.73
68399;BME280;56258;52.196;13.868;2022-09-13T13:44:00;100361.56;;;23.61;47.84
68399;BME280;56258;52.196;13.868;2022-09-13T13:46:29;100356.16;;;23.48;48.33
68399;BME280;56258;52.196;13.868;2022-09-13T13:54:57;100360.03;;;23.27;48.33
68399;BME280;56258;52.196;13.868;2022-09-13T13:57:32;100366.91;;;23.23;48.72
68399;BME280;56258;52.196;13.868;2022-09-13T14:00:24;100363.97;;;23.24;48.63
68399;BME280;56258;52.196;13.868;2022-09-13T14:10:51;100363.81;;;23.19;48.77
68399;BME280;56258;52.196;13.868;2022-09-13T14:24:46;100364.69;;;23.07;49.01
68399;BME280;56258;52.196;13.868;2022-09-13T14:27:17;100364.25;;;23.10;48.82
68399;BME280;56258;52.196;13.868;2022-09-13T14:29:55;100352.56;;;23.09;48.77
68399;BME280;56258;52.196;13.868;2022-09-13T14:32:25;100364.84;;;23.18;48.64
68399;BME280;56258;52.196;13.868;2022-09-13T14:35:04;100369.28;;;23.06;48.79
68399;BME280;56258;52.196;13.868;2022-09-13T14:37:34;100366.34;;;23.01;49.08
68399;BME280;56258;52.196;13.868;2022-09-13T14:40:15;100368.88;;;22.96;49.33
68399;BME280;56258;52.196;13.868;2022-09-13T14:42:45;100367.22;;;22.95;49.39
68399;BME280;56258;52.196;13.868;2022-09-13T14:45:26;100365.56;;;22.87;49.37
68399;BME280;56258;52.196;13.868;2022-09-13T14:48:14;100366.78;;;22.91;49.22
68399;BME280;56258;52.196;13.868;2022-09-13T14:50:49;100360.75;;;22.89;49.19
68399;BME280;56258;52.196;13.868;2022-09-13T14:53:19;100347.41;;;22.81;50.01
68399;BME280;56258;52.196;13.868;2022-09-13T14:55:58;100353.00;;;22.80;49.70
68399;BME280;56258;52.196;13.868;2022-09-13T15:01:07;100335.94;;;22.73;50.33
68399;BME280;56258;52.196;13.868;2022-09-13T15:03:35;100343.88;;;22.81;50.09
68399;BME280;56258;52.196;13.868;2022-09-13T15:06:03;100348.44;;;22.67;50.23
68399;BME280;56258;52.196;13.868;2022-09-13T15:11:03;100345.72;;;23.00;49.41
68399;BME280;56258;52.196;13.868;2022-09-13T15:13:31;100348.25;;;22.95;49.30
68399;BME280;56258;52.196;13.868;2022-09-13T15:15:58;100351.13;;;23.00;48.89
68399;BME280;56258;52.196;13.868;2022-09-13T15:18:34;100359.09;;;22.82;49.77
68399;BME280;56258;52.196;13.868;2022-09-13T15:21:14;100343.44;;;22.77;49.61
68399;BME280;56258;52.196;13.868;2022-09-13T15:23:48;100348.03;;;22.57;50.98
68399;BME280;56258;52.196;13.868;2022-09-13T15:26:20;100344.88;;;22.80;49.61
68399;BME280;56258;52.196;13.868;2022-09-13T15:28:52;100352.22;;;22.86;49.98
68399;BME280;56258;52.196;13.868;2022-09-13T15:31:24;100342.81;;;22.88;50.02
68399;BME280;56258;52.196;13.868;2022-09-13T15:36:48;100338.66;;;23.44;48.23
68399;BME280;56258;52.196;13.868;2022-09-13T15:39:19;100332.47;;;23.23;48.62
68399;BME280;56258;52.196;13.868;2022-09-13T15:41:57;100340.94;;;22.89;49.56
68399;BME280;56258;52.196;13.868;2022-09-13T15:44:25;100336.19;;;22.58;50.85
68399;BME280;56258;52.196;13.868;2022-09-13T15:46:54;100338.88;;;22.84;49.57
68399;BME280;56258;52.196;13.868;2022-09-13T15:49:24;100340.09;;;22.95;49.27
68399;BME280;56258;52.196;13.868;2022-09-13T15:52:02;100334.91;;;22.93;49.47
68399;BME280;56258;52.196;13.868;2022-09-13T15:56:59;100342.59;;;22.77;49.96
68399;BME280;56258;52.196;13.868;2022-09-13T15:59:25;100337.84;;;22.72;49.85
68399;BME280;56258;52.196;13.868;2022-09-13T16:01:52;100344.50;;;22.69;50.10
68399;BME280;56258;52.196;13.868;2022-09-13T16:04:19;100337.63;;;22.74;50.28
68399;BME280;56258;52.196;13.868;2022-09-13T16:06:45;100350.56;;;22.58;50.05
68399;BME280;56258;52.196;13.868;2022-09-13T16:09:19;100349.53;;;22.39;51.13
68399;BME280;56258;52.196;13.868;2022-09-13T16:11:48;100350.56;;;22.19;51.74
68399;BME280;56258;52.196;13.868;2022-09-13T16:14:16;100352.38;;;21.98;52.63
68399;BME280;56258;52.196;13.868;2022-09-13T16:16:44;100342.16;;;21.87;52.45
68399;BME280;56258;52.196;13.868;2022-09-13T16:19:17;100345.09;;;21.99;52.41
68399;BME280;56258;52.196;13.868;2022-09-13T16:21:44;100341.75;;;21.97;52.07
68399;BME280;56258;52.196;13.868;2022-09-13T16:24:11;100344.06;;;21.93;52.38